Accueil
METAR-TAF:

METAR-TAF

Aéroports :

Aéroport de La Rochelle - île de Ré

La Rochelle, France

latitude: 46-10-45N, longitude: 1-11-43W, altitude: 23 m

Observation

Le bulletin a été fait il y a 42 minutes, à 22:30 UTC
Vent 8 kt de sud/sud-est
Température 8°C
Humidité 93%
Pression 1015 hPa
Visibilité: 8000 m

METAR: LFBH 242230Z AUTO 15008KT 8000 NSC 08/07 Q1015 TEMPO SCT006 OVC014

Heure: 00:12 (23:12 UTC)

Prévision

Le bulletin a été fait il y a 6 heures et 12 minutes, à 17:00 UTC
Prévision valable du 24 à 18 UTC au 25 à 18 UTC
Vent 10 kt de sud-est
Visibilité 10 km ou plus
pas de nuages en-dessous de 1500 mètres et pas de cumulonimbus.
Temporairement
du 24 à 20 UTC au 25 à 03 UTC
Nuages épars à une hauteur de 600 ft
Ciel couvert à une hauteur de 1400 ft

TAF: LFBH 241700Z 2418/2518 14010KT CAVOK TEMPO 2420/2503 SCT006 OVC014

Observations et prévisions météorologiques de plus de 4000 aéroports (messages METAR et TAF).

Les stations disponibles sont représentées par des disques jaunes et rouges sur la carte.

Passer la souris dessus pour voir le nom de la station.

Cliquer dessus pour voir les observations et prévisions météorologiques.

Pour changer de carte: cliquez sur les boutons verts avec une croix noire pour zoomer, sur le bouton vert avec un tiret pour effectuer un zoom arrière, ou sur les flèches vertes pour les cartes adjacentes.


METAR-TAF: